Angers, France

6:01 PM CEST on July 28, 2016 (GMT +0200)
Avenue de la Grande Grée | | Change Station

Elev 154 ft 47.50 °N, 0.59 °W | Updated 7 minutes ago

Overcast
Overcast
80.2 °F
Feels Like 82 °F
N
1.2
Wind Variable Wind from West
Gusts 3.1 mph

Today
High -- | Low -- °F
--% Chance of Precip.
Yesterday
High -- | Low -- °F
Precip. -- in
Pressure 30.06 in
Visibility 6.2 miles
Clouds Overcast 4600 ft
Heat Index 82 °F
Dew Point 65 °F
Humidity 59%
Rainfall 0.00 in
Snow Depth Not available.
6:35 AM 9:41 PM
Waning Crescent, 31% visible
METAR LFJR 281530Z AUTO 27011KT 9999 OVC046 25/14 Q1018 NOSIG
Pressure 30.06 in
Visibility 6.2 miles
Clouds Overcast 4600 ft
Heat Index 82 °F
Dew Point 65 °F
Humidity 59%
Rainfall 0.00 in
Snow Depth Not available.
6:35 AM 9:41 PM
Waning Crescent, 31% visible
METAR LFJR 281530Z AUTO 27011KT 9999 OVC046 25/14 Q1018 NOSIG

10-Day Weather Forecast

×

Almanac

Astronomy

Jul. 28, 2016 Rise Set
Actual Time
Civil Twilight
Nautical Twilight
Astronomical Twilight
Moon
Length of Visible Light
Length of Day
Tomorrow will be .
, % of the Moon is Illuminated

Today's Extremes

Country Highs Country Lows

Community

WunderPhotos

Upload Photos

1,928,144 photos uploaded!

WunderBlog® & News

Nearby

Air Quality

  Air Quality AQ Index Pollutant
Not available.

Snow Depth

Station Depth Elevation

Earthquake Activity

City Distance Mag. Time & Date
Minimum magnitude displayed is 2.5.

Coastal Water Temperatures

Place Temperature

Stations

Nearby Weather Stations

Station Location Temp. Windchill Dew Point Humidity Wind Precip. Elev Updated Type